Time;durP1;ratioP1;P1;durP2;ratioP2;P2;SDS_P1;SDS_P2;PMS_P1;PMS_P2;Temp;Humidity;BMP_temperature;BMP_pressure;BME280_temperature;BME280_humidity;BME280_pressure;Samples;Min_cycle;Max_cycle;Signal;HPM_P1;HPM_P2
2022/04/22 00:00:09;;;;;;;8.35;2.80;;;;;;;7.03;48.19;101381.66;5060518;28;20037;-78
2022/04/22 00:02:35;;;;;;;8.15;3.53;;;;;;;7.04;47.54;101373.84;5042616;28;20041;-78
2022/04/22 00:05:01;;;;;;;6.25;2.97;;;;;;;6.98;47.92;101373.94;5045434;28;20107;-79
2022/04/22 00:07:29;;;;;;;8.80;2.80;;;;;;;6.95;48.21;101388.72;5028323;28;20574;-79
2022/04/22 00:09:58;;;;;;;17.45;3.85;;;;;;;6.91;48.56;101377.53;5046698;28;20033;-80
2022/04/22 00:12:24;;;;;;;5.97;2.53;;;;;;;6.79;48.84;101380.31;5032453;28;20388;-79
2022/04/22 00:14:50;;;;;;;9.10;3.33;;;;;;;6.69;48.84;101388.25;5033111;28;20037;-78
2022/04/22 00:17:15;;;;;;;11.07;3.33;;;;;;;6.62;49.26;101378.84;5063044;28;20033;-80
2022/04/22 00:19:41;;;;;;;9.38;3.03;;;;;;;6.67;49.23;101379.63;5031702;28;20064;-78
2022/04/22 00:22:07;;;;;;;4.70;1.83;;;;;;;6.74;48.95;101375.19;5062385;28;20634;-80
2022/04/22 00:24:32;;;;;;;3.60;2.38;;;;;;;6.67;48.95;101376.19;5032922;28;20085;-78
2022/04/22 00:26:58;;;;;;;10.35;2.67;;;;;;;6.73;48.99;101377.81;5028591;28;20056;-78
2022/04/22 00:29:23;;;;;;;6.07;2.47;;;;;;;6.76;49.36;101373.44;5036219;28;20425;-79
2022/04/22 00:31:49;;;;;;;6.55;3.13;;;;;;;6.77;49.39;101374.28;5028568;28;20048;-80
2022/04/22 00:34:15;;;;;;;8.85;2.88;;;;;;;6.67;49.60;101374.44;5035055;28;20025;-81
2022/04/22 00:36:40;;;;;;;8.20;2.30;;;;;;;6.66;49.76;101377.94;5034405;28;20037;-80
2022/04/22 00:39:06;;;;;;;8.10;3.17;;;;;;;6.68;49.75;101375.28;5062006;28;20120;-79
2022/04/22 00:41:32;;;;;;;9.15;3.58;;;;;;;6.68;49.67;101370.09;5032389;28;20483;-81
2022/04/22 00:43:57;;;;;;;5.53;2.63;;;;;;;6.79;49.49;101368.19;5031208;28;20121;-80
2022/04/22 00:46:23;;;;;;;5.95;2.38;;;;;;;6.78;49.21;101371.69;5065276;28;20033;-80
2022/04/22 00:48:49;;;;;;;7.43;2.75;;;;;;;6.74;49.22;101370.00;5029987;28;20047;-79
2022/04/22 00:51:14;;;;;;;8.05;2.35;;;;;;;6.73;48.96;101373.50;5030344;28;20043;-79
2022/04/22 00:53:41;;;;;;;5.57;2.50;;;;;;;6.40;49.60;101364.47;5029902;28;20071;-79
2022/04/22 00:56:10;;;;;;;4.82;2.30;;;;;;;6.58;49.06;101363.34;5081042;28;20060;-76
2022/04/22 00:58:41;;;;;;;4.95;2.63;;;;;;;6.56;48.90;101365.09;5044422;28;20057;-78
2022/04/22 01:01:07;;;;;;;7.53;2.47;;;;;;;6.49;48.40;101364.34;5056102;28;20041;-80
2022/04/22 01:03:33;;;;;;;4.75;2.45;;;;;;;6.37;49.09;101370.53;5031269;28;20214;-79
2022/04/22 01:11:32;;;;;;;9.35;2.30;;;;;;;6.30;48.70;101366.31;5047665;28;20075;-79
2022/04/22 01:14:02;;;;;;;8.65;1.95;;;;;;;6.25;49.01;101358.56;5043574;28;20045;-79
2022/04/22 01:16:28;;;;;;;7.60;2.35;;;;;;;6.27;48.38;101361.16;5062291;28;20029;-80
2022/04/22 01:18:53;;;;;;;2.72;2.13;;;;;;;6.25;48.88;101344.75;5043262;28;20720;-78
2022/04/22 01:21:19;;;;;;;3.30;1.85;;;;;;;6.23;48.95;101354.28;5027974;28;20059;-79
2022/04/22 01:23:44;;;;;;;4.88;2.65;;;;;;;6.29;48.73;101349.91;5029771;28;20033;-80
2022/04/22 01:26:12;;;;;;;8.13;2.15;;;;;;;6.20;48.68;101351.75;5062030;28;20052;-77
2022/04/22 01:28:38;;;;;;;8.93;2.28;;;;;;;6.18;48.76;101348.31;5044116;28;20037;-79
2022/04/22 01:31:04;;;;;;;4.93;2.08;;;;;;;6.01;49.09;101346.78;5045870;28;20904;-78
2022/04/22 01:33:30;;;;;;;3.40;1.90;;;;;;;6.07;48.63;101341.53;5044984;28;20124;-80
2022/04/22 01:35:55;;;;;;;4.53;2.00;;;;;;;6.00;48.64;101345.09;5029138;28;20040;-81
2022/04/22 01:38:21;;;;;;;6.57;1.98;;;;;;;6.04;47.99;101340.72;5059345;28;20037;-78
2022/04/22 01:40:46;;;;;;;4.55;1.58;;;;;;;5.90;48.52;101337.44;5030669;28;20037;-79
2022/04/22 01:43:12;;;;;;;5.93;1.55;;;;;;;5.78;48.40;101336.72;5060738;28;20032;-79
2022/04/22 01:45:37;;;;;;;2.40;1.40;;;;;;;5.82;48.21;101342.75;5029709;28;20525;-80
2022/04/22 01:48:03;;;;;;;2.45;1.60;;;;;;;5.97;47.39;101339.06;5060719;28;20053;-78
2022/04/22 01:50:29;;;;;;;2.03;1.30;;;;;;;5.94;47.30;101334.78;5045119;28;20032;-80
2022/04/22 01:52:54;;;;;;;2.83;1.60;;;;;;;5.87;47.43;101335.75;5032439;28;20041;-79
2022/04/22 01:55:20;;;;;;;3.22;1.52;;;;;;;5.52;48.17;101329.25;5063640;28;20029;-78
2022/04/22 01:57:46;;;;;;;4.82;1.33;;;;;;;5.80;47.59;101331.53;5027081;28;20044;-78
2022/04/22 02:00:12;;;;;;;2.15;1.08;;;;;;;5.79;47.05;101329.78;5045832;28;20127;-79
2022/04/22 02:02:38;;;;;;;5.07;1.58;;;;;;;5.73;47.57;101338.53;5043441;28;20049;-80
2022/04/22 02:05:05;;;;;;;5.40;1.17;;;;;;;5.67;47.43;101331.66;5060605;28;20056;-79
2022/04/22 02:07:31;;;;;;;3.03;1.63;;;;;;;5.63;47.73;101335.16;5045035;28;20049;-79
2022/04/22 02:09:56;;;;;;;5.35;0.88;;;;;;;5.53;47.97;101325.78;5027777;28;20044;-79
2022/04/22 02:12:22;;;;;;;4.15;1.15;;;;;;;5.44;48.43;101324.16;5028767;28;20037;-78
2022/04/22 02:14:47;;;;;;;3.20;1.50;;;;;;;5.57;48.32;101317.09;5043781;28;20566;-78
2022/04/22 02:17:13;;;;;;;7.07;1.38;;;;;;;5.59;48.22;101323.13;5027263;28;20041;-81
2022/04/22 02:19:39;;;;;;;2.42;1.13;;;;;;;5.56;48.31;101320.56;5030314;28;20033;-78
2022/04/22 02:22:05;;;;;;;4.63;1.33;;;;;;;5.64;48.29;101323.06;5027106;28;20063;-79
2022/04/22 02:24:31;;;;;;;3.15;1.45;;;;;;;5.70;47.18;101325.56;5031180;28;20387;-79
2022/04/22 02:29:40;;;;;;;6.25;1.73;;;;;;;5.49;48.17;101326.69;5060702;28;20242;-78
2022/04/22 02:32:06;;;;;;;3.78;0.90;;;;;;;5.57;48.13;101317.09;5046341;28;20575;-77
2022/04/22 02:34:31;;;;;;;2.83;0.80;;;;;;;5.50;48.00;101320.63;5028189;28;20025;-79
2022/04/22 02:36:57;;;;;;;6.82;1.15;;;;;;;5.49;48.29;101313.72;5058868;28;20041;-78
2022/04/22 02:39:22;;;;;;;5.88;0.93;;;;;;;5.57;47.81;101309.31;5060987;28;20036;-79
2022/04/22 02:47:16;;;;;;;2.42;1.27;;;;;;;5.74;47.12;101306.50;5045461;28;20518;-78
2022/04/22 02:49:44;;;;;;;2.85;1.10;;;;;;;5.69;47.47;101305.72;5043346;28;20033;-79
2022/04/22 02:52:11;;;;;;;3.67;1.00;;;;;;;5.70;47.47;101303.97;5058599;28;20463;-79
2022/04/22 02:54:37;;;;;;;2.75;0.90;;;;;;;5.62;47.36;101306.69;5027586;28;20633;-78
2022/04/22 02:57:03;;;;;;;5.55;1.50;;;;;;;5.60;47.38;101301.50;5058720;28;20107;-77
2022/04/22 02:59:29;;;;;;;2.78;1.20;;;;;;;5.42;47.59;101302.56;5028131;28;20032;-79
2022/04/22 03:01:55;;;;;;;2.75;0.85;;;;;;;5.40;47.96;101304.31;5042688;28;20536;-79
2022/04/22 03:04:21;;;;;;;4.05;1.20;;;;;;;5.40;47.56;101304.31;5046540;28;20029;-78
2022/04/22 03:06:47;;;;;;;6.00;1.33;;;;;;;5.22;48.35;101302.81;5059546;28;20732;-78
2022/04/22 03:09:12;;;;;;;3.25;0.90;;;;;;;5.23;48.57;101304.53;5028796;28;20047;-78
2022/04/22 03:11:38;;;;;;;2.80;0.43;;;;;;;5.21;48.80;101295.91;5044117;28;20035;-78
2022/04/22 03:14:05;;;;;;;2.78;0.77;;;;;;;5.23;48.67;101294.16;5059089;28;20041;-78
2022/04/22 03:16:31;;;;;;;2.45;1.00;;;;;;;5.14;48.54;101289.06;5058711;28;20124;-78
2022/04/22 03:18:57;;;;;;;3.88;1.02;;;;;;;5.37;48.43;101296.59;5041667;28;20053;-80
2022/04/22 03:21:22;;;;;;;2.17;0.98;;;;;;;5.54;47.82;101287.75;5029336;28;20036;-78
2022/04/22 03:23:48;;;;;;;4.85;0.80;;;;;;;5.52;47.64;101290.34;5041710;28;20079;-80
2022/04/22 03:26:15;;;;;;;1.80;0.90;;;;;;;5.31;47.92;101283.69;5044237;28;20024;-78
2022/04/22 03:28:40;;;;;;;7.28;1.00;;;;;;;5.51;47.47;101285.22;5042430;28;20052;-80
2022/04/22 03:31:06;;;;;;;2.25;0.90;;;;;;;5.50;47.60;101281.72;5058473;28;20048;-77
2022/04/22 03:33:32;;;;;;;2.28;0.60;;;;;;;5.55;47.16;101282.56;5042602;28;20483;-79
2022/04/22 03:35:57;;;;;;;1.55;0.60;;;;;;;5.62;47.04;101286.78;5058158;28;20076;-80
2022/04/22 03:38:23;;;;;;;3.78;0.95;;;;;;;5.47;47.41;101274.00;5040225;28;20129;-79
2022/04/22 03:40:52;;;;;;;2.45;0.90;;;;;;;5.41;47.81;101274.94;5027594;28;20041;-80
2022/04/22 03:43:19;;;;;;;2.65;0.88;;;;;;;5.46;47.18;101262.78;5045333;28;20124;-78
2022/04/22 03:45:44;;;;;;;2.47;0.80;;;;;;;5.52;47.06;101268.75;5042018;28;20033;-78
2022/04/22 03:48:11;;;;;;;1.08;0.50;;;;;;;5.52;46.91;101258.38;5058835;28;20053;-78
2022/04/22 03:50:37;;;;;;;3.45;0.98;;;;;;;5.50;47.14;101260.13;5034792;28;20056;-77
2022/04/22 03:53:04;;;;;;;2.45;0.60;;;;;;;5.52;47.04;101253.19;5035113;28;20421;-77
2022/04/22 03:55:30;;;;;;;1.40;0.50;;;;;;;5.49;47.25;101256.69;5043019;28;20491;-77
2022/04/22 03:58:10;;;;;;;3.17;1.27;;;;;;;5.58;46.84;101258.31;5046587;28;20079;-80
2022/04/22 04:00:44;;;;;;;4.28;0.60;;;;;;;5.31;47.76;101260.38;5024213;28;20406;-81
2022/04/22 04:03:11;;;;;;;2.30;1.40;;;;;;;5.45;47.13;101258.47;5040898;28;20052;-79
2022/04/22 04:05:38;;;;;;;1.50;0.60;;;;;;;5.57;47.03;101262.66;5059852;28;20033;-79
2022/04/22 04:08:14;;;;;;;3.25;0.75;;;;;;;5.52;47.28;101256.66;5029039;28;20049;-79
2022/04/22 04:16:08;;;;;;;3.20;1.42;;;;;;;5.37;47.76;101259.41;5060045;28;20095;-78
2022/04/22 04:18:35;;;;;;;2.17;1.08;;;;;;;5.17;48.44;101255.34;5026107;28;20052;-77
2022/04/22 04:23:48;;;;;;;7.28;1.05;;;;;;;5.35;47.90;101258.63;5041919;28;20076;-78
2022/04/22 04:26:15;;;;;;;1.65;0.52;;;;;;;5.34;48.04;101257.72;5045980;28;20271;-79
2022/04/22 04:28:41;;;;;;;6.68;1.02;;;;;;;5.40;48.07;101267.19;5025588;28;20518;-80
2022/04/22 04:31:08;;;;;;;3.10;0.70;;;;;;;5.60;47.18;101262.59;5059882;28;20802;-80
2022/04/22 04:33:36;;;;;;;1.98;0.60;;;;;;;5.55;47.38;101259.22;5042235;28;20040;-79
2022/04/22 04:36:02;;;;;;;5.30;1.45;;;;;;;6.03;46.46;101254.22;5027078;28;20029;-78
2022/04/22 04:38:28;;;;;;;8.82;1.27;;;;;;;6.54;45.19;101252.59;5026539;28;20110;-76
2022/04/22 04:40:54;;;;;;;2.50;0.93;;;;;;;6.78;44.19;101246.97;5043781;28;20037;-79
2022/04/22 04:43:21;;;;;;;2.50;0.85;;;;;;;6.38;44.86;101247.66;5042187;28;20036;-78
2022/04/22 04:45:47;;;;;;;2.95;0.77;;;;;;;6.16;45.56;101254.03;5043415;28;20484;-79
2022/04/22 04:48:13;;;;;;;1.15;0.52;;;;;;;6.06;45.84;101251.59;5057810;28;20044;-78
2022/04/22 04:50:40;;;;;;;3.38;0.82;;;;;;;6.00;46.07;101256.88;5046478;28;20406;-79
2022/04/22 04:53:06;;;;;;;5.10;0.63;;;;;;;5.97;46.37;101254.31;5047572;28;20440;-80
2022/04/22 04:55:32;;;;;;;4.55;0.90;;;;;;;5.94;46.62;101259.53;5047608;28;20029;-77
2022/04/22 04:57:57;;;;;;;3.55;0.47;;;;;;;6.00;46.23;101259.47;5032411;28;20395;-78
2022/04/22 05:00:23;;;;;;;5.43;0.95;;;;;;;6.13;45.86;101261.84;5062711;28;20307;-78
2022/04/22 05:02:48;;;;;;;9.43;4.30;;;;;;;6.01;46.46;101263.75;5031003;28;20079;-78
2022/04/22 05:05:15;;;;;;;5.70;1.77;;;;;;;6.02;46.59;101262.88;5029697;28;20090;-78
2022/04/22 05:07:49;;;;;;;3.35;0.93;;;;;;;5.99;46.30;101255.13;5047413;28;20067;-78
2022/04/22 05:10:15;;;;;;;4.05;0.82;;;;;;;6.17;46.18;101253.16;5028017;28;20029;-78
2022/04/22 05:12:41;;;;;;;9.18;1.15;;;;;;;7.74;42.56;101254.59;5044549;28;20947;-80
2022/04/22 05:15:08;;;;;;;3.65;0.90;;;;;;;9.18;39.36;101239.72;5060718;28;20040;-78
2022/04/22 05:17:34;;;;;;;6.22;0.75;;;;;;;9.64;37.98;101245.34;5046371;28;20033;-79
2022/04/22 05:20:00;;;;;;;4.05;0.98;;;;;;;9.96;37.34;101246.16;5047774;28;20032;-77
2022/04/22 05:22:26;;;;;;;3.60;0.68;;;;;;;10.78;35.18;101252.16;5045316;28;20045;-79
2022/04/22 05:24:51;;;;;;;4.53;0.90;;;;;;;12.20;33.40;101248.59;5039541;28;20048;-79
2022/04/22 05:27:17;;;;;;;1.27;0.60;;;;;;;13.03;31.89;101246.88;5067050;28;20049;-78
2022/04/22 05:32:38;;;;;;;6.57;0.90;;;;;;;14.80;28.88;101251.56;5050943;28;20099;-82
2022/04/22 05:35:06;;;;;;;5.00;0.60;;;;;;;15.32;27.47;101243.56;5048410;28;20057;-80
2022/04/22 05:37:48;;;;;;;5.28;0.63;;;;;;;16.07;26.92;101249.09;5048914;28;20083;-79
2022/04/22 05:40:18;;;;;;;2.60;0.63;;;;;;;15.51;27.51;101240.78;5046987;28;20691;-80
2022/04/22 05:42:45;;;;;;;1.67;0.73;;;;;;;15.13;28.00;101235.78;5046195;28;20059;-80
2022/04/22 05:45:12;;;;;;;2.30;0.95;;;;;;;15.73;27.25;101245.72;5062937;28;20059;-78
2022/04/22 05:47:38;;;;;;;7.05;0.63;;;;;;;15.46;27.24;101242.81;5028705;28;20048;-78
2022/04/22 05:50:05;;;;;;;3.17;0.47;;;;;;;15.80;26.98;101247.91;5061787;28;20013;-78
2022/04/22 05:52:33;;;;;;;1.63;0.43;;;;;;;16.83;25.66;101244.59;5031782;28;20044;-80
2022/04/22 05:55:02;;;;;;;2.47;0.63;;;;;;;16.24;26.53;101241.03;5031656;28;20273;-80
2022/04/22 05:57:31;;;;;;;3.03;0.65;;;;;;;16.96;25.63;101241.22;5046666;28;20052;-81
2022/04/22 05:59:58;;;;;;;1.83;0.82;;;;;;;16.33;26.11;101234.38;5044898;28;20032;-77
2022/04/22 06:02:24;;;;;;;4.80;0.80;;;;;;;16.88;26.28;101239.03;5037318;28;20538;-80
2022/04/22 06:04:50;;;;;;;1.90;0.45;;;;;;;16.65;26.17;101247.47;5060765;28;20074;-79
2022/04/22 06:07:15;;;;;;;6.68;1.13;;;;;;;16.18;26.54;101241.41;5042116;28;20410;-78
2022/04/22 06:12:24;;;;;;;4.18;1.00;;;;;;;16.08;27.03;101237.59;5059342;28;20497;-80
2022/04/22 06:14:50;;;;;;;2.45;0.80;;;;;;;16.08;27.01;101235.81;5025903;28;20242;-80
2022/04/22 06:17:15;;;;;;;1.35;0.70;;;;;;;16.94;26.55;101230.75;5058474;28;20052;-78
2022/04/22 06:19:41;;;;;;;5.20;1.35;;;;;;;16.94;26.08;101229.91;5028867;28;20044;-80
2022/04/22 06:22:06;;;;;;;1.98;0.57;;;;;;;17.41;25.72;101229.56;5058236;28;20068;-81
2022/04/22 06:24:32;;;;;;;5.40;0.75;;;;;;;17.28;25.24;101225.16;5029464;28;20031;-77
2022/04/22 06:26:57;;;;;;;1.50;0.57;;;;;;;17.85;24.61;101225.06;5026028;28;20040;-77
2022/04/22 06:29:23;;;;;;;1.50;0.50;;;;;;;17.27;25.31;101223.44;5044285;28;20713;-79
2022/04/22 06:31:49;;;;;;;4.03;0.68;;;;;;;17.57;24.65;101218.91;5027473;28;20075;-78
2022/04/22 06:34:15;;;;;;;6.10;0.60;;;;;;;18.76;23.17;101218.97;5059962;28;20017;-80
2022/04/22 06:36:41;;;;;;;3.55;0.57;;;;;;;18.80;23.69;101221.28;5027149;28;20051;-77
2022/04/22 06:39:07;;;;;;;1.15;0.50;;;;;;;19.92;22.62;101220.41;5032625;28;20412;-78
2022/04/22 06:47:01;;;;;;;3.22;0.98;;;;;;;18.56;23.65;101212.41;5039778;28;20494;-80
2022/04/22 06:49:27;;;;;;;4.00;0.80;;;;;;;17.97;24.15;101212.81;5027800;28;20036;-79
2022/04/22 06:51:53;;;;;;;4.57;0.70;;;;;;;18.25;24.24;101202.13;5040230;28;20588;-79
2022/04/22 06:54:19;;;;;;;1.77;0.70;;;;;;;19.13;23.07;101206.66;5034620;28;20079;-79
2022/04/22 06:56:45;;;;;;;5.68;1.80;;;;;;;18.65;23.22;101206.47;5057393;28;20045;-77
2022/04/22 06:59:11;;;;;;;3.85;1.05;;;;;;;19.08;23.08;101206.16;5023971;28;20032;-79
2022/04/22 07:01:38;;;;;;;2.05;0.82;;;;;;;19.25;23.01;101205.78;5027337;28;20043;-79
2022/04/22 07:04:04;;;;;;;2.28;0.70;;;;;;;18.69;23.13;101202.66;5039381;28;20032;-78
2022/04/22 07:06:30;;;;;;;3.40;0.77;;;;;;;18.75;23.12;101204.88;5042280;28;20122;-80
2022/04/22 07:08:56;;;;;;;1.05;0.55;;;;;;;18.56;23.37;101199.16;5038096;28;20052;-79
2022/04/22 07:11:24;;;;;;;6.30;1.00;;;;;;;18.84;22.91;101198.94;5042390;28;20063;-78
2022/04/22 07:13:51;;;;;;;6.07;0.90;;;;;;;18.71;23.36;101187.50;5036609;28;20049;-79
2022/04/22 07:16:18;;;;;;;5.03;0.65;;;;;;;19.66;22.33;101195.84;5058459;28;20036;-79
2022/04/22 07:18:43;;;;;;;2.22;0.75;;;;;;;20.48;21.58;101188.72;5022652;28;20590;-80
2022/04/22 07:21:09;;;;;;;5.32;0.82;;;;;;;19.36;22.71;101190.91;5056622;28;20112;-79
2022/04/22 07:23:35;;;;;;;5.50;1.20;;;;;;;19.20;23.31;101191.19;5039637;28;20025;-79
2022/04/22 07:26:05;;;;;;;2.55;1.48;;;;;;;19.19;23.09;101186.81;5055878;28;20037;-82
2022/04/22 07:28:32;;;;;;;4.97;0.60;;;;;;;18.48;23.76;101181.19;5038019;28;20037;-77
2022/04/22 07:30:58;;;;;;;5.65;1.15;;;;;;;18.42;24.16;101192.19;5047438;28;20507;-80
2022/04/22 07:33:24;;;;;;;3.40;0.98;;;;;;;19.43;23.43;101186.84;5039874;28;20254;-79
2022/04/22 07:35:50;;;;;;;4.63;1.00;;;;;;;19.55;22.61;101182.47;5042619;28;20637;-78
2022/04/22 07:38:15;;;;;;;6.22;1.17;;;;;;;19.99;21.93;101183.66;5039756;28;20052;-80
2022/04/22 07:40:43;;;;;;;2.47;0.80;;;;;;;20.81;20.70;101181.75;5024506;28;20406;-80
2022/04/22 07:48:40;;;;;;;2.63;1.17;;;;;;;20.17;21.93;101181.41;5055601;28;20128;-77
2022/04/22 07:51:06;;;;;;;4.57;0.80;;;;;;;19.69;22.66;101183.19;5041370;28;20036;-77
2022/04/22 07:53:32;;;;;;;3.95;1.30;;;;;;;20.23;21.75;101183.63;5024420;28;20045;-77
2022/04/22 07:55:58;;;;;;;1.33;0.63;;;;;;;19.98;22.05;101176.66;5038901;28;20122;-78
2022/04/22 07:58:23;;;;;;;2.97;0.95;;;;;;;22.42;19.93;101172.22;5025368;28;20037;-78
2022/04/22 08:00:49;;;;;;;3.67;0.80;;;;;;;22.37;19.24;101167.28;5023810;28;21018;-77
2022/04/22 08:03:17;;;;;;;5.28;1.65;;;;;;;21.62;20.26;101166.44;5032205;28;20040;-78
2022/04/22 08:05:43;;;;;;;4.57;1.40;;;;;;;21.75;19.58;101156.47;5037988;28;20092;-78
2022/04/22 08:08:09;;;;;;;2.53;0.90;;;;;;;20.61;21.26;101169.22;5055653;28;20060;-84
2022/04/22 08:10:36;;;;;;;1.45;0.73;;;;;;;19.99;22.47;101162.44;5057238;28;20028;-78
2022/04/22 08:13:03;;;;;;;6.28;0.70;;;;;;;18.93;23.62;101167.50;5040617;28;20115;-79
2022/04/22 08:15:29;;;;;;;3.17;1.02;;;;;;;18.85;23.74;101166.22;5041304;28;20033;-77
2022/04/22 08:17:54;;;;;;;5.63;1.08;;;;;;;19.29;23.02;101171.97;5039771;28;20041;-79
2022/04/22 08:20:20;;;;;;;1.73;0.57;;;;;;;18.99;23.34;101167.06;5024137;28;20036;-77
2022/04/22 08:22:45;;;;;;;2.33;0.60;;;;;;;19.87;22.05;101154.44;5023166;28;20037;-78
2022/04/22 08:25:12;;;;;;;4.00;0.70;;;;;;;19.73;22.38;101167.06;5040751;28;20040;-78
2022/04/22 08:27:38;;;;;;;5.93;0.75;;;;;;;19.23;23.35;101161.81;5027568;28;20040;-79
2022/04/22 08:30:06;;;;;;;3.58;1.20;;;;;;;19.07;23.27;101162.06;5059029;28;20525;-78
2022/04/22 08:32:31;;;;;;;3.38;1.33;;;;;;;19.21;23.77;101166.38;5025828;28;20049;-77
2022/04/22 08:34:57;;;;;;;4.50;0.77;;;;;;;19.50;23.19;101164.25;5059704;28;20454;-80
2022/04/22 08:37:22;;;;;;;2.75;1.08;;;;;;;19.21;23.25;101167.22;5059364;28;20128;-78
2022/04/22 08:39:48;;;;;;;2.40;0.90;;;;;;;19.00;23.76;101152.88;5046356;28;20037;-78
2022/04/22 08:42:15;;;;;;;3.25;0.57;;;;;;;19.84;22.94;101148.53;5042970;28;20045;-78
2022/04/22 08:44:41;;;;;;;17.95;3.35;;;;;;;19.46;23.34;101150.38;5043990;28;20591;-77
2022/04/22 08:50:09;;;;;;;8.80;1.00;;;;;;;19.06;24.31;101147.97;5059026;28;20413;-80
2022/04/22 08:52:36;;;;;;;7.47;1.23;;;;;;;18.33;25.39;101143.38;5059570;28;20076;-78
2022/04/22 08:55:04;;;;;;;2.80;1.10;;;;;;;18.28;25.48;101137.56;5061564;28;20045;-78
2022/04/22 08:57:29;;;;;;;3.08;0.95;;;;;;;18.42;25.44;101134.78;5043891;28;20063;-80
2022/04/22 09:00:05;;;;;;;5.57;0.70;;;;;;;18.32;25.82;101124.94;5046460;28;20698;-79
2022/04/22 09:02:30;;;;;;;2.47;0.82;;;;;;;16.88;27.94;101132.59;5041934;28;20041;-79
2022/04/22 09:04:56;;;;;;;2.95;0.90;;;;;;;17.01;27.54;101141.44;5029590;28;20040;-80
2022/04/22 09:07:26;;;;;;;3.35;1.38;;;;;;;16.27;27.75;101132.75;5040952;28;20346;-80
2022/04/22 09:09:52;;;;;;;6.72;1.33;;;;;;;16.49;28.09;101134.94;5026073;28;20044;-79
2022/04/22 09:12:23;;;;;;;3.00;0.73;;;;;;;15.58;29.84;101142.88;5059209;28;20399;-78
2022/04/22 09:14:52;;;;;;;4.03;1.30;;;;;;;15.14;30.36;101138.28;5058620;28;20041;-79
2022/04/22 09:17:26;;;;;;;3.08;1.70;;;;;;;15.18;31.99;101138.97;5058253;28;20361;-78
2022/04/22 09:19:54;;;;;;;3.63;0.93;;;;;;;14.39;32.27;101138.78;5043789;28;20056;-78
2022/04/22 09:22:24;;;;;;;6.53;1.20;;;;;;;14.56;31.64;101130.91;5045763;28;20052;-78
2022/04/22 09:24:55;;;;;;;6.38;1.20;;;;;;;14.48;31.26;101127.84;5027990;28;20567;-79
2022/04/22 09:27:31;;;;;;;3.93;1.43;;;;;;;14.81;31.91;101125.16;5059771;28;20062;-78
2022/04/22 09:29:57;;;;;;;4.95;1.33;;;;;;;15.23;31.53;101115.88;5044306;28;22201;-79
2022/04/22 09:32:27;;;;;;;2.78;1.00;;;;;;;16.36;30.34;101126.91;5044638;28;20602;-77
2022/04/22 09:34:57;;;;;;;4.75;0.90;;;;;;;14.65;31.36;101125.13;5041092;28;20041;-77
2022/04/22 09:42:55;;;;;;;4.65;0.80;;;;;;;15.27;30.23;101129.75;5058309;28;20059;-78
2022/04/22 09:45:33;;;;;;;2.80;1.25;;;;;;;15.19;30.83;101116.94;5059232;28;20108;-78
2022/04/22 09:47:59;;;;;;;5.07;0.93;;;;;;;16.11;29.26;101113.53;5057380;28;20045;-77
2022/04/22 09:50:41;;;;;;;4.82;0.98;;;;;;;16.74;28.57;101115.78;5043293;28;20029;-76
2022/04/22 09:53:08;;;;;;;16.60;2.08;;;;;;;16.80;28.36;101115.44;5033635;28;20585;-76
2022/04/22 09:55:53;;;;;;;2.10;1.35;;;;;;;15.53;30.21;101113.31;5036838;28;20451;-77
2022/04/22 09:58:26;;;;;;;6.00;0.98;;;;;;;15.78;30.00;101111.91;5031374;28;20048;-77
2022/04/22 10:01:06;;;;;;;2.83;0.88;;;;;;;16.19;29.91;101096.28;5033077;28;20279;-78
2022/04/22 10:03:37;;;;;;;8.48;1.10;;;;;;;16.28;28.93;101101.94;5046972;28;20078;-78
2022/04/22 10:06:05;;;;;;;2.67;1.33;;;;;;;16.38;29.00;101101.28;5042978;28;20087;-78
2022/04/22 10:08:34;;;;;;;2.83;0.95;;;;;;;16.04;29.15;101093.72;5039902;28;20073;-79
2022/04/22 10:11:01;;;;;;;1.40;0.65;;;;;;;16.55;28.74;101102.03;5058725;28;20099;-78
2022/04/22 10:13:45;;;;;;;2.38;0.75;;;;;;;17.13;27.42;101092.28;5026044;28;20848;-79
2022/04/22 10:16:11;;;;;;;2.60;1.15;;;;;;;16.79;27.00;101095.25;5046860;28;20151;-79
2022/04/22 10:18:38;;;;;;;12.82;1.77;;;;;;;16.56;27.92;101094.03;5042961;28;20051;-78
2022/04/22 10:21:04;;;;;;;2.88;1.00;;;;;;;16.22;28.22;101090.00;5042244;28;20075;-78
2022/04/22 10:23:31;;;;;;;2.55;1.58;;;;;;;16.78;27.99;101093.59;5058430;28;20491;-77
2022/04/22 10:25:58;;;;;;;7.43;1.70;;;;;;;16.93;27.36;101081.19;5036203;28;20094;-78
2022/04/22 10:28:25;;;;;;;4.35;1.38;;;;;;;17.13;29.04;101087.00;5041096;28;20037;-78
2022/04/22 10:30:53;;;;;;;5.22;1.02;;;;;;;16.79;28.88;101079.44;5039438;28;20033;-78
2022/04/22 10:33:23;;;;;;;4.03;1.25;;;;;;;17.18;27.31;101075.19;5058214;28;20091;-77
2022/04/22 10:35:56;;;;;;;2.28;1.25;;;;;;;17.16;28.40;101065.69;5024980;28;20098;-78
2022/04/22 10:38:42;;;;;;;5.70;1.95;;;;;;;17.65;27.68;101063.31;5042846;28;20057;-76
2022/04/22 10:41:22;;;;;;;2.53;1.20;;;;;;;17.15;28.24;101061.31;5041134;28;20081;-75
2022/04/22 10:49:37;;;;;;;4.18;1.65;;;;;;;17.54;27.68;101067.63;5057891;28;20175;-80
2022/04/22 10:52:13;;;;;;;4.72;1.17;;;;;;;17.29;27.20;101060.41;5022187;28;20068;-78
2022/04/22 10:54:50;;;;;;;6.28;1.60;;;;;;;17.26;27.10;101068.56;5043432;28;20033;-76
2022/04/22 10:57:19;;;;;;;4.22;1.88;;;;;;;17.23;26.91;101066.97;5054514;28;20099;-75
2022/04/22 10:59:45;;;;;;;3.55;1.38;;;;;;;17.55;27.43;101070.16;5056686;28;20035;-78
2022/04/22 11:02:31;;;;;;;3.75;1.45;;;;;;;16.96;27.94;101067.81;5054174;28;20048;-77
2022/04/22 11:05:23;;;;;;;2.72;1.17;;;;;;;17.01;27.91;101063.06;5037716;28;20037;-78
2022/04/22 11:07:53;;;;;;;6.18;1.83;;;;;;;16.65;28.32;101054.84;5054384;28;20087;-78
2022/04/22 11:10:19;;;;;;;5.13;1.60;;;;;;;16.43;29.88;101050.88;5055432;28;20039;-79
2022/04/22 11:12:58;;;;;;;3.00;1.60;;;;;;;16.91;29.49;101046.16;5021361;28;20316;-77
2022/04/22 11:15:42;;;;;;;7.88;1.85;;;;;;;16.87;28.88;101049.03;5038272;28;20120;-77
2022/04/22 11:18:08;;;;;;;4.75;1.63;;;;;;;17.54;28.27;101047.31;5054269;28;20191;-78
2022/04/22 11:20:38;;;;;;;2.40;1.75;;;;;;;17.76;28.05;101049.38;5056006;28;20457;-79
2022/04/22 11:23:09;;;;;;;1.98;1.25;;;;;;;17.29;28.02;101044.56;5053906;28;20041;-76
2022/04/22 11:25:34;;;;;;;2.63;1.33;;;;;;;17.57;28.60;101043.63;5042288;28;20062;-78
2022/04/22 11:28:02;;;;;;;3.78;1.38;;;;;;;17.12;27.63;101035.13;5021232;28;20486;-77
2022/04/22 11:30:28;;;;;;;8.38;1.90;;;;;;;17.52;27.37;101029.88;5044418;28;20571;-77
2022/04/22 11:33:02;;;;;;;4.38;1.90;;;;;;;17.56;27.78;101034.88;5025014;28;20491;-78
2022/04/22 11:35:33;;;;;;;6.28;2.60;;;;;;;17.83;26.55;101033.94;5040984;28;20036;-77
2022/04/22 11:38:04;;;;;;;2.58;1.48;;;;;;;17.76;27.23;101027.34;5041984;28;20116;-77
2022/04/22 11:40:40;;;;;;;3.30;1.80;;;;;;;18.18;27.75;101025.34;5026826;28;20700;-79
2022/04/22 11:43:10;;;;;;;3.35;1.55;;;;;;;18.49;27.43;101026.72;5054328;28;20573;-78
2022/04/22 11:45:39;;;;;;;3.45;1.70;;;;;;;18.53;26.26;101016.75;5057509;28;20116;-79
2022/04/22 11:48:24;;;;;;;6.75;1.52;;;;;;;18.46;25.50;101025.13;5038077;28;20090;-78
2022/04/22 11:50:51;;;;;;;4.18;1.55;;;;;;;17.89;27.60;101017.63;5053451;28;20037;-79
2022/04/22 11:53:23;;;;;;;3.35;1.90;;;;;;;18.10;26.64;101017.13;5057636;28;20045;-80
2022/04/22 11:55:49;;;;;;;2.45;1.23;;;;;;;18.64;26.26;101014.19;5056745;28;20044;-78
2022/04/22 11:58:17;;;;;;;2.72;1.27;;;;;;;19.10;26.17;101010.88;5020187;28;20052;-78
2022/04/22 12:06:14;;;;;;;3.75;1.67;;;;;;;18.97;26.60;101007.44;5056872;28;20037;-78
2022/04/22 12:08:57;;;;;;;4.18;1.98;;;;;;;19.18;26.01;101008.47;5022079;28;20045;-79
2022/04/22 12:11:25;;;;;;;5.60;1.95;;;;;;;19.32;26.02;101012.72;5040190;28;20518;-76
2022/04/22 12:13:52;;;;;;;5.28;2.28;;;;;;;18.75;24.65;101011.59;5052720;28;20049;-78
2022/04/22 12:16:18;;;;;;;4.55;2.70;;;;;;;19.23;25.34;101006.34;5058176;28;20020;-79
2022/04/22 12:18:47;;;;;;;4.28;1.80;;;;;;;19.20;25.75;101005.72;5039961;28;20052;-78
2022/04/22 12:21:13;;;;;;;4.00;1.90;;;;;;;18.93;25.32;101012.09;5026281;28;20155;-77
2022/04/22 12:23:42;;;;;;;4.57;2.35;;;;;;;18.58;25.70;101004.03;5024974;28;20087;-78
2022/04/22 12:26:25;;;;;;;5.45;2.45;;;;;;;18.89;25.39;100998.22;5024095;28;20036;-77
2022/04/22 12:29:17;;;;;;;5.75;2.15;;;;;;;19.13;25.36;100994.72;5022896;28;20041;-82